Big Bear Station Historical Data
Daily Summary for October 11, 2017 Units:  English    Metric   Both
« Previous Day
Next Day »
Daily Weekly Monthly Yearly Custom
  High: Low: Average:
Temperature: 67.5 °F 37.0 °F 48.8 °F
Dew Point: 35.5 °F 17.5 °F 25.4 °F
Humidity: 73 % 16 % 44 %
Wind Speed: 7.8 mph 0.0 mph 1.3 mph
Wind Gust: -999.0 mph - -
Wind:- - West
Pressure: 30.14 in 30.10 in -
Precipitation: 0.00 in    
Historical Graphs
 
 
Tabular Data for October 11, 2017
Time Temperature Dew Point Pressure Wind Wind Speed Wind Gust Humidity Rainfall Rate (Hourly)
00:01 37.4 °F 24.4 °F 30.14 in Calm   -999.0 mph 59 % 0 in
00:16 37.4 °F 24.0 °F 30.14 in Calm   -999.0 mph 58 % 0 in
00:31 37.0 °F 20.1 °F 30.13 in Calm   -999.0 mph 50 % 0 in
00:47 37.0 °F 20.1 °F 30.13 in Calm   -999.0 mph 50 % 0 in
01:02 37.2 °F 18.8 °F 30.13 in Calm   -999.0 mph 47 % 0 in
01:17 37.4 °F 17.5 °F 30.13 in Calm   -999.0 mph 44 % 0 in
01:32 38.1 °F 18.6 °F 30.13 in Calm   -999.0 mph 45 % 0 in
01:48 37.9 °F 19.5 °F 30.13 in Calm   -999.0 mph 47 % 0 in
02:03 38.3 °F 19.8 °F 30.13 in Calm   -999.0 mph 47 % 0 in
02:18 38.3 °F 20.8 °F 30.13 in Calm   -999.0 mph 49 % 0 in
02:33 39.0 °F 21.0 °F 30.12 in Calm   -999.0 mph 48 % 0 in
02:48 39.2 °F 21.1 °F 30.12 in Calm   -999.0 mph 48 % 0 in
03:04 39.0 °F 20.0 °F 30.12 in Calm   -999.0 mph 46 % 0 in
03:19 39.0 °F 21.9 °F 30.11 in Calm   -999.0 mph 50 % 0 in
03:34 38.7 °F 24.3 °F 30.11 in Calm   -999.0 mph 56 % 0 in
03:49 38.7 °F 27.2 °F 30.10 in Calm   -999.0 mph 63 % 0 in
04:04 39.0 °F 28.2 °F 30.10 in Calm   -999.0 mph 65 % 0 in
04:20 38.5 °F 25.0 °F 30.11 in Calm   -999.0 mph 58 % 0 in
04:50 38.8 °F 28.0 °F 30.11 in Calm   -999.0 mph 65 % 0 in
05:05 39.0 °F 23.3 °F 30.11 in Calm   -999.0 mph 53 % 0 in
05:20 39.2 °F 22.1 °F 30.11 in SSE 1.7 mph -999.0 mph 50 % 0 in
05:36 39.4 °F 21.3 °F 30.11 in Calm   -999.0 mph 48 % 0 in
05:51 38.8 °F 20.8 °F 30.11 in Calm   -999.0 mph 48 % 0 in
06:07 38.7 °F 20.7 °F 30.11 in Calm   -999.0 mph 48 % 0 in
06:22 39.0 °F 21.4 °F 30.11 in SSE 2.2 mph -999.0 mph 49 % 0 in
06:37 38.5 °F 21.0 °F 30.11 in Calm   -999.0 mph 49 % 0 in
06:52 38.8 °F 21.3 °F 30.11 in Calm   -999.0 mph 49 % 0 in
07:08 38.5 °F 21.5 °F 30.11 in Calm   -999.0 mph 50 % 0 in
07:23 38.7 °F 21.6 °F 30.11 in Calm   -999.0 mph 50 % 0 in
07:38 41.4 °F 22.7 °F 30.11 in ESE 1.1 mph -999.0 mph 47 % 0 in
07:53 43.5 °F 23.6 °F 30.12 in Calm   -999.0 mph 45 % 0 in
08:08 47.1 °F 24.0 °F 30.12 in Calm   -999.0 mph 40 % 0 in
08:24 48.9 °F 23.8 °F 30.13 in NNW 2.7 mph -999.0 mph 37 % 0 in
08:39 49.8 °F 23.9 °F 30.13 in NW 1.1 mph -999.0 mph 36 % 0 in
08:54 51.1 °F 25.1 °F 30.13 in NW 3.2 mph -999.0 mph 36 % 0 in
09:09 52.0 °F 24.5 °F 30.13 in WNW 4.7 mph -999.0 mph 34 % 0 in
09:24 52.9 °F 25.3 °F 30.13 in NW 3.2 mph -999.0 mph 34 % 0 in
09:40 53.8 °F 25.3 °F 30.13 in NW 4.2 mph -999.0 mph 33 % 0 in
09:55 54.7 °F 26.1 °F 30.13 in West 3.2 mph -999.0 mph 33 % 0 in
10:10 55.8 °F 25.6 °F 30.13 in West 3.7 mph -999.0 mph 31 % 0 in
10:25 57.2 °F 26.0 °F 30.13 in SSW 1.1 mph -999.0 mph 30 % 0 in
10:40 59.2 °F 27.8 °F 30.14 in WNW 1.7 mph -999.0 mph 30 % 0 in
10:56 60.4 °F 26.2 °F 30.13 in SSE 1.1 mph -999.0 mph 27 % 0 in
11:11 61.3 °F 27.0 °F 30.14 in West 1.7 mph -999.0 mph 27 % 0 in
11:26 62.8 °F 25.5 °F 30.14 in NW 5.8 mph -999.0 mph 24 % 0 in
11:42 63.9 °F 24.3 °F 30.14 in WNW 3.7 mph -999.0 mph 22 % 0 in
11:57 64.9 °F 21.6 °F 30.13 in SW 3.7 mph -999.0 mph 19 % 0 in
12:13 65.1 °F 24.2 °F 30.13 in NNW 7.8 mph -999.0 mph 21 % 0 in
12:28 66.4 °F 22.9 °F 30.13 in WNW 4.2 mph -999.0 mph 19 % 0 in
12:43 66.9 °F 22.0 °F 30.13 in SSW 2.7 mph -999.0 mph 18 % 0 in
12:58 65.8 °F 19.7 °F 30.12 in North 5.8 mph -999.0 mph 17 % 0 in
13:14 65.3 °F 17.9 °F 30.12 in NE 2.7 mph -999.0 mph 16 % 0 in
13:29 66.4 °F 21.6 °F 30.12 in NNW 4.7 mph -999.0 mph 18 % 0 in
13:44 67.5 °F 22.5 °F 30.11 in North 1.1 mph -999.0 mph 18 % 0 in
13:59 65.8 °F 23.6 °F 30.11 in NNW 5.3 mph -999.0 mph 20 % 0 in
14:15 64.9 °F 22.8 °F 30.11 in ESE 3.7 mph -999.0 mph 20 % 0 in
14:30 62.8 °F 21.1 °F 30.11 in North 7.8 mph -999.0 mph 20 % 0 in
14:45 62.8 °F 22.3 °F 30.11 in Calm   -999.0 mph 21 % 0 in
15:01 63.1 °F 21.4 °F 30.11 in SW 1.7 mph -999.0 mph 20 % 0 in
15:16 62.1 °F 20.5 °F 30.11 in SE 2.2 mph -999.0 mph 20 % 0 in
15:31 62.2 °F 22.9 °F 30.11 in Calm   -999.0 mph 22 % 0 in
15:46 62.1 °F 23.8 °F 30.11 in NNW 2.7 mph -999.0 mph 23 % 0 in
16:02 61.0 °F 22.9 °F 30.10 in NW 4.2 mph -999.0 mph 23 % 0 in
16:17 60.1 °F 23.2 °F 30.10 in South 1.7 mph -999.0 mph 24 % 0 in
16:32 59.4 °F 24.5 °F 30.10 in NNW 2.7 mph -999.0 mph 26 % 0 in
16:47 58.8 °F 24.0 °F 30.10 in NNW 1.1 mph -999.0 mph 26 % 0 in
17:03 58.3 °F 27.0 °F 30.10 in SW 6.3 mph -999.0 mph 30 % 0 in
17:18 58.1 °F 27.6 °F 30.10 in Calm   -999.0 mph 31 % 0 in
17:33 57.0 °F 30.3 °F 30.10 in Calm   -999.0 mph 36 % 0 in
17:48 55.4 °F 31.5 °F 30.10 in Calm   -999.0 mph 40 % 0 in
18:03 53.8 °F 33.5 °F 30.10 in NW 1.7 mph -999.0 mph 46 % 0 in
18:19 52.5 °F 35.4 °F 30.10 in NW 2.7 mph -999.0 mph 52 % 0 in
18:34 51.6 °F 35.5 °F 30.10 in Calm   -999.0 mph 54 % 0 in
18:49 50.5 °F 34.9 °F 30.10 in Calm   -999.0 mph 55 % 0 in
19:04 49.5 °F 34.0 °F 30.10 in Calm   -999.0 mph 55 % 0 in
19:19 48.4 °F 34.3 °F 30.10 in Calm   -999.0 mph 58 % 0 in
19:35 46.8 °F 32.8 °F 30.10 in Calm   -999.0 mph 58 % 0 in
19:50 46.0 °F 32.9 °F 30.10 in Calm   -999.0 mph 60 % 0 in
20:05 45.3 °F 32.6 °F 30.10 in Calm   -999.0 mph 61 % 0 in
20:20 44.4 °F 32.2 °F 30.11 in Calm   -999.0 mph 62 % 0 in
20:35 43.9 °F 32.1 °F 30.11 in South 2.2 mph -999.0 mph 63 % 0 in
20:51 43.3 °F 32.7 °F 30.11 in South 1.7 mph -999.0 mph 66 % 0 in
21:06 42.4 °F 33.0 °F 30.11 in Calm   -999.0 mph 69 % 0 in
21:21 41.9 °F 32.1 °F 30.11 in Calm   -999.0 mph 68 % 0 in
21:36 41.5 °F 31.7 °F 30.11 in Calm   -999.0 mph 68 % 0 in
21:51 40.8 °F 31.1 °F 30.12 in Calm   -999.0 mph 68 % 0 in
22:07 40.5 °F 31.5 °F 30.12 in Calm   -999.0 mph 70 % 0 in
22:22 39.9 °F 31.9 °F 30.11 in Calm   -999.0 mph 73 % 0 in
22:37 39.7 °F 31.8 °F 30.11 in Calm   -999.0 mph 73 % 0 in
22:52 39.2 °F 29.9 °F 30.11 in Calm   -999.0 mph 69 % 0 in
23:07 39.0 °F 30.0 °F 30.10 in Calm   -999.0 mph 70 % 0 in
23:23 38.5 °F 29.2 °F 30.10 in Calm   -999.0 mph 69 % 0 in
23:38 38.7 °F 25.2 °F 30.10 in Calm   -999.0 mph 58 % 0 in
23:53 38.8 °F 22.2 °F 30.10 in Calm   -999.0 mph 51 % 0 in
Big Bear CA Weather
Compliments of Weather Underground - 1.5 mb